createdAt,value
2022-12-08T00:01:15.518Z,76.04
2022-12-08T00:03:43.558Z,76.18
2022-12-08T00:06:50.292Z,77.70
2022-12-08T00:09:38.567Z,77.14
2022-12-08T00:12:08.116Z,76.29
2022-12-08T00:14:40.847Z,75.87
2022-12-08T00:17:09.869Z,76.20
2022-12-08T00:19:39.186Z,75.93
2022-12-08T00:22:10.329Z,75.01
2022-12-08T00:24:39.887Z,75.21
2022-12-08T00:27:09.504Z,76.05
2022-12-08T00:29:37.054Z,76.04
2022-12-08T00:32:04.956Z,75.07
2022-12-08T00:34:33.124Z,74.73
2022-12-08T00:37:00.677Z,75.48
2022-12-08T00:39:27.706Z,75.54
2022-12-08T00:42:12.674Z,75.43
2022-12-08T00:44:43.844Z,75.49
2022-12-08T00:47:11.645Z,75.43
2022-12-08T00:49:38.561Z,75.32
2022-12-08T00:52:05.605Z,75.75
2022-12-08T00:54:32.638Z,75.80
2022-12-08T00:56:59.576Z,74.68
2022-12-08T00:59:26.641Z,74.91
2022-12-08T01:01:53.521Z,74.43
2022-12-08T01:04:21.015Z,75.24
2022-12-08T01:06:48.259Z,74.38
2022-12-08T01:09:16.306Z,74.58
2022-12-08T01:11:44.762Z,75.44
2022-12-08T01:14:12.898Z,75.13
2022-12-08T01:16:41.596Z,74.50
2022-12-08T01:19:11.235Z,74.65
2022-12-08T01:21:38.260Z,74.84
2022-12-08T01:24:05.649Z,74.57
2022-12-08T01:26:32.581Z,75.32
2022-12-08T01:28:59.540Z,74.80
2022-12-08T01:31:26.594Z,74.73
2022-12-08T01:33:53.592Z,74.54
2022-12-08T01:36:25.140Z,74.26
2022-12-08T01:38:53.518Z,74.58
2022-12-08T01:41:23.390Z,74.78
2022-12-08T01:44:08.562Z,75.24
2022-12-08T01:46:38.742Z,74.25
2022-12-08T01:49:19.608Z,74.61
2022-12-08T01:51:59.195Z,73.57
2022-12-08T01:54:42.726Z,74.14
2022-12-08T01:57:17.068Z,73.73
2022-12-08T01:59:51.396Z,74.18
2022-12-08T02:02:18.429Z,74.18
2022-12-08T02:04:45.537Z,73.78
2022-12-08T02:07:14.813Z,73.88
2022-12-08T02:09:42.090Z,73.66
2022-12-08T02:12:10.455Z,75.15
2022-12-08T02:15:01.837Z,74.67
2022-12-08T02:17:57.569Z,74.67
2022-12-08T02:20:38.046Z,74.92
2022-12-08T02:23:23.241Z,74.52
2022-12-08T02:26:37.040Z,75.18
2022-12-08T02:29:18.610Z,74.34
2022-12-08T02:32:12.017Z,74.27
2022-12-08T02:35:08.097Z,74.09
2022-12-08T02:38:18.517Z,74.59
2022-12-08T02:40:58.081Z,74.64
2022-12-08T02:43:45.546Z,74.35
2022-12-08T02:46:18.197Z,74.65
2022-12-08T02:48:45.699Z,75.08
2022-12-08T02:51:12.616Z,74.28
2022-12-08T02:53:40.665Z,75.12
2022-12-08T02:56:38.073Z,75.42
2022-12-08T02:59:28.213Z,74.76
2022-12-08T03:02:25.841Z,74.34
2022-12-08T03:05:31.916Z,74.86
2022-12-08T03:08:41.462Z,73.93
2022-12-08T03:11:33.555Z,74.31
2022-12-08T03:14:03.876Z,74.82
2022-12-08T03:16:34.244Z,74.03
2022-12-08T03:19:09.729Z,73.76
2022-12-08T03:21:38.313Z,73.77
2022-12-08T03:24:08.186Z,74.91
2022-12-08T03:26:41.871Z,74.62
2022-12-08T03:29:08.805Z,73.07
2022-12-08T03:31:50.633Z,73.97
2022-12-08T03:34:18.897Z,73.44
2022-12-08T03:36:46.330Z,74.44
2022-12-08T03:39:13.413Z,73.99
2022-12-08T03:41:40.315Z,75.03
2022-12-08T03:44:07.457Z,74.21
2022-12-08T03:46:34.376Z,75.27
2022-12-08T03:49:01.386Z,75.96
2022-12-08T03:51:28.501Z,75.35
2022-12-08T03:53:55.466Z,75.40
2022-12-08T03:56:31.801Z,76.43
2022-12-08T03:58:59.333Z,75.55
2022-12-08T04:01:27.501Z,75.03
2022-12-08T04:03:54.551Z,75.86
2022-12-08T04:06:22.228Z,74.94
2022-12-08T04:08:50.827Z,76.67
2022-12-08T04:11:18.992Z,76.80
2022-12-08T04:13:46.263Z,75.54
2022-12-08T04:16:22.694Z,76.18
2022-12-08T04:18:50.039Z,77.35
2022-12-08T04:21:17.187Z,76.18
2022-12-08T04:23:44.149Z,77.44
2022-12-08T04:26:11.898Z,78.34
2022-12-08T04:28:38.926Z,79.00
2022-12-08T04:31:06.530Z,79.22
2022-12-08T04:33:33.575Z,80.91
2022-12-08T04:36:00.586Z,81.25
2022-12-08T04:38:28.531Z,80.21
2022-12-08T04:40:55.453Z,80.98
2022-12-08T04:43:22.538Z,80.24
2022-12-08T04:45:49.529Z,79.85
2022-12-08T04:48:16.588Z,80.20
2022-12-08T04:50:45.383Z,81.08
2022-12-08T04:53:13.757Z,80.35
2022-12-08T04:55:43.854Z,81.54
2022-12-08T04:58:15.659Z,80.42
2022-12-08T05:00:43.395Z,80.83
2022-12-08T05:03:10.554Z,80.52
2022-12-08T05:05:37.512Z,79.87
2022-12-08T05:08:05.177Z,80.98
2022-12-08T05:10:32.843Z,79.66
2022-12-08T05:13:00.195Z,81.01
2022-12-08T05:15:27.142Z,81.08
2022-12-08T05:17:54.120Z,80.73
2022-12-08T05:20:21.049Z,79.36
2022-12-08T05:22:47.993Z,80.21
2022-12-08T05:25:15.145Z,80.10
2022-12-08T05:27:43.260Z,79.32
2022-12-08T05:30:10.461Z,79.94
2022-12-08T05:32:37.460Z,79.52
2022-12-08T05:35:04.705Z,78.57
2022-12-08T05:37:31.714Z,78.09
2022-12-08T05:39:58.751Z,78.34
2022-12-08T05:42:25.680Z,78.58
2022-12-08T05:44:52.804Z,77.27
2022-12-08T05:47:19.908Z,79.17
2022-12-08T05:49:46.897Z,77.16
2022-12-08T05:52:13.914Z,78.13
2022-12-08T05:54:40.788Z,78.07
2022-12-08T05:57:07.635Z,78.60
2022-12-08T05:59:34.595Z,78.91
2022-12-08T06:02:01.686Z,80.13
2022-12-08T06:04:28.652Z,79.20
2022-12-08T06:06:55.868Z,79.82
2022-12-08T06:09:22.800Z,80.82
2022-12-08T06:11:49.770Z,80.09
2022-12-08T06:14:16.816Z,80.39
2022-12-08T06:16:43.864Z,80.70
2022-12-08T06:19:10.901Z,81.03
2022-12-08T06:21:37.825Z,80.63
2022-12-08T06:24:04.898Z,79.02
2022-12-08T06:26:31.815Z,78.88
2022-12-08T06:29:00.814Z,79.44
2022-12-08T06:31:28.493Z,80.31
2022-12-08T06:33:55.586Z,79.12
2022-12-08T06:36:24.967Z,78.13
2022-12-08T06:38:52.728Z,79.96
2022-12-08T06:41:19.814Z,79.31
2022-12-08T06:43:46.780Z,78.73
2022-12-08T06:46:17.381Z,78.63
2022-12-08T06:48:44.696Z,79.28
2022-12-08T06:51:13.009Z,78.19
2022-12-08T06:53:40.948Z,78.37
2022-12-08T06:56:08.295Z,76.86
2022-12-08T06:58:36.113Z,77.10
2022-12-08T07:01:09.127Z,76.77
2022-12-08T07:03:37.537Z,75.75
2022-12-08T07:06:05.329Z,75.22
2022-12-08T07:08:33.630Z,75.65
2022-12-08T07:11:06.204Z,76.53
2022-12-08T07:13:33.246Z,75.53
2022-12-08T07:16:00.108Z,75.80
2022-12-08T07:18:27.017Z,74.75
2022-12-08T07:20:53.902Z,75.00
2022-12-08T07:23:20.843Z,75.89
2022-12-08T07:25:47.803Z,75.86
2022-12-08T07:28:14.820Z,75.28
2022-12-08T07:30:41.809Z,74.63
2022-12-08T07:33:08.874Z,74.96
2022-12-08T07:35:35.892Z,74.50
2022-12-08T07:38:02.972Z,74.42
2022-12-08T07:40:29.877Z,75.13
2022-12-08T07:42:56.843Z,74.94
2022-12-08T07:45:31.112Z,75.35
2022-12-08T07:47:58.659Z,74.56
2022-12-08T07:50:25.533Z,74.25
2022-12-08T07:52:52.431Z,74.60
2022-12-08T07:55:19.493Z,74.16
2022-12-08T07:57:46.359Z,74.86
2022-12-08T08:00:14.305Z,73.67
2022-12-08T08:02:41.889Z,74.26
2022-12-08T08:05:09.535Z,74.46
2022-12-08T08:07:37.378Z,73.64
2022-12-08T08:10:05.785Z,73.96
2022-12-08T08:12:33.534Z,73.39
2022-12-08T08:15:01.850Z,73.73
2022-12-08T08:17:31.328Z,73.58
2022-12-08T08:19:58.383Z,73.68
2022-12-08T08:22:26.885Z,73.45
2022-12-08T08:24:54.451Z,73.18
2022-12-08T08:27:21.495Z,73.04
2022-12-08T08:29:48.497Z,73.43
2022-12-08T08:32:15.395Z,73.12
2022-12-08T08:34:42.400Z,73.79
2022-12-08T08:37:09.352Z,74.21
2022-12-08T08:39:36.404Z,73.54
2022-12-08T08:42:03.446Z,74.88
2022-12-08T08:44:30.391Z,75.41
2022-12-08T08:46:57.408Z,75.20
2022-12-08T08:49:24.676Z,74.56
2022-12-08T08:51:52.334Z,74.99
2022-12-08T08:54:20.486Z,75.08
2022-12-08T08:56:48.477Z,76.35
2022-12-08T08:59:15.437Z,75.28
2022-12-08T09:01:42.382Z,75.67
2022-12-08T09:04:10.365Z,74.94
2022-12-08T09:06:38.151Z,75.91
2022-12-08T09:09:05.667Z,75.58
2022-12-08T09:11:33.202Z,75.99
2022-12-08T09:14:00.480Z,75.80
2022-12-08T09:16:27.523Z,75.31
2022-12-08T09:18:54.604Z,75.01
2022-12-08T09:21:25.887Z,74.07
2022-12-08T09:23:55.056Z,75.00
2022-12-08T09:26:22.623Z,74.44
2022-12-08T09:28:51.519Z,73.84
2022-12-08T09:31:19.962Z,74.34
2022-12-08T09:33:47.827Z,75.03
2022-12-08T09:36:15.635Z,74.39
2022-12-08T09:38:42.627Z,74.22
2022-12-08T09:41:48.501Z,75.33
2022-12-08T09:44:55.293Z,74.94
2022-12-08T09:47:35.497Z,74.15
2022-12-08T09:50:18.091Z,74.50
2022-12-08T09:52:59.836Z,74.21
2022-12-08T09:55:53.156Z,74.34
2022-12-08T09:58:22.222Z,75.35
2022-12-08T10:00:49.177Z,75.07
2022-12-08T10:03:17.068Z,75.12
2022-12-08T10:05:56.079Z,76.23
2022-12-08T10:08:36.392Z,75.14
2022-12-08T10:11:14.416Z,75.50
2022-12-08T10:14:06.845Z,75.97
2022-12-08T10:16:39.493Z,76.09
2022-12-08T10:19:25.605Z,75.88
2022-12-08T10:21:53.855Z,76.33
2022-12-08T10:25:00.305Z,76.35
2022-12-08T10:27:28.022Z,76.83
2022-12-08T10:29:55.029Z,76.65
2022-12-08T10:32:24.649Z,77.05
2022-12-08T10:35:12.255Z,76.91
2022-12-08T10:37:40.025Z,77.29
2022-12-08T10:40:19.094Z,76.84
2022-12-08T10:42:53.622Z,77.13
2022-12-08T10:45:23.685Z,77.29
2022-12-08T10:48:18.466Z,77.01
2022-12-08T10:50:55.761Z,76.38
2022-12-08T10:53:24.832Z,76.74
2022-12-08T10:56:05.103Z,77.25
2022-12-08T10:58:42.484Z,76.18
2022-12-08T11:01:21.687Z,75.94
2022-12-08T11:04:01.237Z,76.70
2022-12-08T11:06:35.057Z,75.59
2022-12-08T11:09:15.755Z,76.56
2022-12-08T11:11:51.850Z,76.96
2022-12-08T11:14:32.477Z,77.44
2022-12-08T11:17:08.745Z,77.52
2022-12-08T11:19:41.032Z,77.21
2022-12-08T11:22:30.075Z,77.75
2022-12-08T11:25:02.908Z,77.72
2022-12-08T11:27:33.272Z,77.19
2022-12-08T11:30:02.223Z,76.99
2022-12-08T11:32:31.361Z,77.65
2022-12-08T11:35:03.945Z,77.72
2022-12-08T11:37:40.665Z,77.88
2022-12-08T11:40:23.331Z,78.00
2022-12-08T11:42:59.959Z,78.62
2022-12-08T11:45:32.571Z,77.46
2022-12-08T11:48:16.990Z,78.09
2022-12-08T11:50:55.581Z,78.27
2022-12-08T11:53:44.530Z,78.72
2022-12-08T11:56:35.013Z,79.08
2022-12-08T11:59:25.913Z,78.70
2022-12-08T12:01:53.486Z,78.78
2022-12-08T12:04:42.460Z,78.50
2022-12-08T12:07:48.155Z,78.99
2022-12-08T12:10:27.083Z,78.65
2022-12-08T12:13:02.804Z,78.38
2022-12-08T12:15:54.917Z,79.42
2022-12-08T12:18:50.122Z,79.44
2022-12-08T12:21:26.607Z,79.50
2022-12-08T12:24:10.427Z,78.56
2022-12-08T12:26:49.337Z,78.72
2022-12-08T12:29:23.913Z,78.58
2022-12-08T12:31:59.336Z,78.61
2022-12-08T12:34:44.744Z,78.04
2022-12-08T12:37:15.397Z,78.53
2022-12-08T12:40:00.914Z,78.51
2022-12-08T12:42:44.450Z,78.54
2022-12-08T12:45:17.109Z,78.91
2022-12-08T12:47:55.859Z,79.47
2022-12-08T12:50:32.506Z,77.82
2022-12-08T12:53:15.672Z,78.19
2022-12-08T12:55:45.843Z,77.98
2022-12-08T12:58:28.001Z,78.19
2022-12-08T13:01:10.362Z,77.73
2022-12-08T13:04:02.687Z,78.31
2022-12-08T13:06:41.247Z,78.26
2022-12-08T13:09:20.729Z,78.09
2022-12-08T13:11:52.939Z,77.91
2022-12-08T13:14:46.797Z,77.88
2022-12-08T13:17:23.304Z,78.31
2022-12-08T13:19:55.990Z,77.67
2022-12-08T13:22:47.406Z,77.66
2022-12-08T13:25:38.952Z,78.33
2022-12-08T13:28:27.910Z,77.65
2022-12-08T13:31:02.085Z,77.31
2022-12-08T13:33:38.988Z,78.06
2022-12-08T13:36:17.518Z,78.32
2022-12-08T13:38:47.380Z,78.32
2022-12-08T13:41:21.983Z,78.56
2022-12-08T13:44:50.227Z,78.39
2022-12-08T13:58:38.317Z,78.93
2022-12-08T14:01:12.355Z,79.20
2022-12-08T14:06:51.784Z,78.70
2022-12-08T14:09:37.933Z,78.64
2022-12-08T14:12:13.897Z,78.22
2022-12-08T14:17:32.446Z,78.33
2022-12-08T14:20:21.896Z,79.06
2022-12-08T14:22:50.388Z,78.58
2022-12-08T14:25:19.072Z,78.78
2022-12-08T14:27:47.945Z,78.79
2022-12-08T14:30:15.113Z,78.59
2022-12-08T14:32:41.933Z,79.15
2022-12-08T14:35:08.858Z,79.06
2022-12-08T14:37:35.774Z,78.28
2022-12-08T14:40:25.074Z,78.36
2022-12-08T14:43:05.266Z,78.59
2022-12-08T14:45:34.957Z,78.54
2022-12-08T14:48:23.607Z,79.30
2022-12-08T14:51:12.333Z,79.19
2022-12-08T14:54:00.125Z,79.37
2022-12-08T14:56:39.236Z,79.05
2022-12-08T14:59:06.139Z,79.47
2022-12-08T15:01:34.375Z,78.89
2022-12-08T15:04:07.996Z,80.05
2022-12-08T15:06:35.361Z,79.76
2022-12-08T15:09:16.676Z,79.94
2022-12-08T15:11:44.177Z,79.63
2022-12-08T15:14:29.354Z,79.89
2022-12-08T15:16:56.861Z,80.33
2022-12-08T15:19:32.427Z,80.03
2022-12-08T15:22:11.042Z,79.43
2022-12-08T15:24:38.116Z,80.00
2022-12-08T15:27:05.122Z,79.61
2022-12-08T15:29:32.352Z,79.84
2022-12-08T15:32:01.604Z,79.69
2022-12-08T15:34:28.724Z,79.35
2022-12-08T15:36:55.717Z,80.34
2022-12-08T15:39:34.881Z,79.80
2022-12-08T15:42:03.456Z,79.70
2022-12-08T15:44:32.856Z,80.24
2022-12-08T15:47:00.122Z,79.15
2022-12-08T15:49:27.342Z,80.28
2022-12-08T15:52:01.950Z,79.59
2022-12-08T15:54:34.892Z,79.97
2022-12-08T15:59:49.267Z,80.03
2022-12-08T16:02:22.333Z,80.37
2022-12-08T16:07:38.401Z,80.40
2022-12-08T16:10:07.999Z,80.37
2022-12-08T16:16:00.714Z,79.94
2022-12-08T16:18:32.808Z,81.33
2022-12-08T16:21:19.042Z,81.39
2022-12-08T16:23:47.251Z,81.66
2022-12-08T16:27:01.068Z,81.29
2022-12-08T16:29:07.598Z,80.88
2022-12-08T16:31:34.840Z,81.75
2022-12-08T16:34:01.963Z,82.51
2022-12-08T16:36:28.989Z,82.62
2022-12-08T16:38:55.877Z,82.78
2022-12-08T16:41:41.349Z,83.71
2022-12-08T16:44:08.422Z,82.88
2022-12-08T16:46:36.105Z,83.32
2022-12-08T16:49:04.735Z,83.34
2022-12-08T16:51:31.772Z,83.71
2022-12-08T16:53:58.807Z,83.23
2022-12-08T16:56:32.542Z,83.62
2022-12-08T16:59:01.747Z,84.46
2022-12-08T17:01:28.835Z,84.82
2022-12-08T17:04:29.105Z,85.38
2022-12-08T17:06:42.754Z,84.65
2022-12-08T17:09:09.644Z,84.21
2022-12-08T17:11:43.081Z,84.79
2022-12-08T17:14:14.238Z,84.13
2022-12-08T17:16:42.586Z,85.22
2022-12-08T17:19:09.944Z,85.04
2022-12-08T17:21:36.989Z,85.58
2022-12-08T17:24:04.897Z,85.60
2022-12-08T17:26:31.856Z,84.83
2022-12-08T17:29:00.888Z,85.62
2022-12-08T17:31:30.613Z,85.14
2022-12-08T17:34:00.072Z,85.28
2022-12-08T17:36:27.074Z,85.63
2022-12-08T17:38:54.541Z,84.97
2022-12-08T17:41:21.586Z,85.28
2022-12-08T17:43:48.531Z,85.29
2022-12-08T17:46:19.558Z,84.24
2022-12-08T17:48:47.414Z,85.33
2022-12-08T17:51:15.034Z,84.71
2022-12-08T17:53:42.102Z,84.84
2022-12-08T17:56:18.880Z,85.79
2022-12-08T17:58:52.596Z,86.48
2022-12-08T18:01:21.598Z,85.36
2022-12-08T18:03:48.670Z,86.68
2022-12-08T18:06:17.774Z,86.68
2022-12-08T18:08:45.245Z,87.25
2022-12-08T18:11:15.880Z,86.00
2022-12-08T18:13:42.816Z,86.69
2022-12-08T18:16:10.256Z,86.47
2022-12-08T18:18:37.289Z,86.69
2022-12-08T18:21:04.525Z,86.73
2022-12-08T18:23:31.779Z,87.26
2022-12-08T18:25:59.025Z,88.30
2022-12-08T18:28:26.002Z,87.55
2022-12-08T18:30:52.960Z,87.82
2022-12-08T18:33:19.961Z,88.09
2022-12-08T18:35:46.902Z,87.48
2022-12-08T18:38:14.391Z,88.00
2022-12-08T18:40:41.394Z,88.29
2022-12-08T18:43:08.738Z,88.70
2022-12-08T18:45:38.824Z,88.99
2022-12-08T18:48:08.340Z,87.89
2022-12-08T18:50:35.273Z,87.34
2022-12-08T18:53:02.219Z,88.13
2022-12-08T18:55:29.297Z,88.08
2022-12-08T18:57:56.241Z,87.96
2022-12-08T19:00:23.336Z,88.88
2022-12-08T19:02:50.376Z,88.76
2022-12-08T19:05:17.703Z,88.91
2022-12-08T19:07:45.831Z,88.02
2022-12-08T19:10:13.214Z,88.99
2022-12-08T19:12:40.338Z,87.66
2022-12-08T19:15:08.242Z,88.48
2022-12-08T19:17:35.421Z,88.57
2022-12-08T19:20:02.529Z,88.43
2022-12-08T19:22:30.426Z,88.59
2022-12-08T19:24:57.389Z,88.74
2022-12-08T19:27:24.289Z,88.81
2022-12-08T19:29:51.324Z,88.46
2022-12-08T19:32:18.563Z,88.17
2022-12-08T19:34:45.473Z,87.92
2022-12-08T19:37:13.083Z,87.84
2022-12-08T19:39:59.279Z,88.29
2022-12-08T19:42:45.115Z,88.22
2022-12-08T19:45:15.766Z,87.70
2022-12-08T19:47:43.094Z,88.86
2022-12-08T19:50:30.645Z,88.23
2022-12-08T19:52:57.904Z,89.11
2022-12-08T19:55:25.929Z,89.20
2022-12-08T19:57:53.522Z,88.39
2022-12-08T20:00:21.382Z,88.50
2022-12-08T20:02:48.496Z,88.46
2022-12-08T20:05:16.144Z,88.48
2022-12-08T20:07:43.705Z,89.50
2022-12-08T20:10:22.176Z,88.49
2022-12-08T20:12:49.237Z,88.84
2022-12-08T20:15:16.326Z,88.88
2022-12-08T20:17:43.547Z,88.74
2022-12-08T20:20:12.208Z,88.87
2022-12-08T20:22:39.193Z,88.79
2022-12-08T20:25:06.655Z,89.86
2022-12-08T20:27:33.726Z,89.64
2022-12-08T20:30:00.670Z,88.55
2022-12-08T20:32:27.781Z,89.61
2022-12-08T20:34:54.778Z,89.53
2022-12-08T20:37:21.652Z,88.82
2022-12-08T20:39:48.872Z,89.21
2022-12-08T20:42:15.872Z,89.55
2022-12-08T20:44:44.678Z,89.92
2022-12-08T20:47:12.879Z,90.33
2022-12-08T20:49:40.085Z,89.29
2022-12-08T20:52:08.265Z,90.62
2022-12-08T20:54:37.014Z,88.96
2022-12-08T20:57:04.388Z,89.31
2022-12-08T20:59:31.561Z,88.97
2022-12-08T21:02:00.679Z,89.74
2022-12-08T21:04:28.120Z,89.66
2022-12-08T21:06:55.144Z,88.50
2022-12-08T21:09:22.475Z,88.07
2022-12-08T21:11:49.533Z,89.52
2022-12-08T21:14:16.510Z,88.19
2022-12-08T21:16:43.468Z,88.90
2022-12-08T21:19:11.380Z,89.10
2022-12-08T21:21:38.837Z,89.34
2022-12-08T21:24:06.339Z,88.87
2022-12-08T21:26:33.449Z,89.57
2022-12-08T21:29:00.391Z,89.31
2022-12-08T21:31:29.512Z,89.55
2022-12-08T21:33:56.664Z,89.77
2022-12-08T21:36:23.926Z,88.64
2022-12-08T21:38:51.307Z,89.44
2022-12-08T21:41:41.745Z,89.22
2022-12-08T21:44:11.034Z,89.54
2022-12-08T21:46:38.546Z,88.63
2022-12-08T21:49:05.701Z,88.55
2022-12-08T21:51:33.877Z,88.97
2022-12-08T21:54:01.060Z,89.01
2022-12-08T21:56:28.193Z,88.64
2022-12-08T21:58:55.265Z,89.69
2022-12-08T22:01:22.333Z,89.56
2022-12-08T22:03:49.456Z,88.83
2022-12-08T22:06:16.723Z,88.29
2022-12-08T22:08:43.999Z,88.52
2022-12-08T22:11:12.091Z,89.15
2022-12-08T22:13:41.266Z,89.62
2022-12-08T22:16:11.519Z,89.31
2022-12-08T22:18:38.849Z,88.77
2022-12-08T22:21:15.427Z,88.73
2022-12-08T22:23:42.935Z,89.27
2022-12-08T22:26:11.415Z,89.37
2022-12-08T22:28:41.670Z,89.38
2022-12-08T22:31:14.632Z,89.32
2022-12-08T22:33:42.768Z,89.15
2022-12-08T22:36:22.389Z,89.96
2022-12-08T22:38:50.594Z,89.91
2022-12-08T22:41:18.251Z,89.08
2022-12-08T22:43:46.007Z,88.81
2022-12-08T22:46:16.312Z,89.72
2022-12-08T22:48:43.770Z,89.72
2022-12-08T22:51:11.487Z,89.13
2022-12-08T22:53:38.836Z,89.38
2022-12-08T22:56:07.059Z,89.93
2022-12-08T22:58:34.457Z,90.49
2022-12-08T23:01:01.356Z,89.65
2022-12-08T23:03:28.458Z,89.96
2022-12-08T23:05:55.663Z,89.15
2022-12-08T23:08:23.741Z,89.85
2022-12-08T23:10:52.316Z,90.32
2022-12-08T23:13:20.172Z,90.47
2022-12-08T23:15:47.771Z,90.28
2022-12-08T23:18:19.167Z,89.78
2022-12-08T23:20:46.949Z,90.38
2022-12-08T23:23:14.506Z,89.82
2022-12-08T23:25:43.079Z,90.16
2022-12-08T23:28:10.745Z,89.96
2022-12-08T23:30:40.442Z,90.03
2022-12-08T23:33:07.848Z,89.77
2022-12-08T23:35:35.052Z,90.35
2022-12-08T23:38:02.166Z,90.76
2022-12-08T23:40:29.062Z,90.34
2022-12-08T23:42:56.101Z,89.16
2022-12-08T23:45:23.009Z,89.01
2022-12-08T23:47:49.992Z,89.88
2022-12-08T23:50:17.344Z,89.30
2022-12-08T23:52:44.825Z,89.90
2022-12-08T23:55:11.806Z,89.97
2022-12-08T23:57:40.090Z,89.80
